sensor_id;sensor_type;location;lat;lon;timestamp;pressure;altitude;pressure_sealevel;temperature;humidity
77939;BME280;67136;47.546;21.630;2024-01-11T00:00:24;101517.31;;;-8.00;100.00
77939;BME280;67136;47.546;21.630;2024-01-11T00:03:27;101513.19;;;-7.90;100.00
77939;BME280;67136;47.546;21.630;2024-01-11T00:06:29;101519.25;;;-7.78;100.00
77939;BME280;67136;47.546;21.630;2024-01-11T00:09:32;101518.44;;;-7.77;100.00
77939;BME280;67136;47.546;21.630;2024-01-11T00:12:34;101527.88;;;-7.63;100.00
77939;BME280;67136;47.546;21.630;2024-01-11T00:15:37;101518.66;;;-7.52;100.00
77939;BME280;67136;47.546;21.630;2024-01-11T00:18:40;101523.84;;;-7.43;100.00
77939;BME280;67136;47.546;21.630;2024-01-11T00:21:43;101516.22;;;-7.45;100.00
77939;BME280;67136;47.546;21.630;2024-01-11T00:24:45;101507.84;;;-7.36;100.00
77939;BME280;67136;47.546;21.630;2024-01-11T00:27:48;101518.81;;;-7.39;100.00
77939;BME280;67136;47.546;21.630;2024-01-11T00:30:50;101520.59;;;-7.29;100.00
77939;BME280;67136;47.546;21.630;2024-01-11T00:33:53;101517.09;;;-7.41;100.00
77939;BME280;67136;47.546;21.630;2024-01-11T00:36:56;101517.81;;;-7.56;100.00
77939;BME280;67136;47.546;21.630;2024-01-11T00:39:58;101519.59;;;-7.46;100.00
77939;BME280;67136;47.546;21.630;2024-01-11T00:43:01;101514.59;;;-7.38;100.00
77939;BME280;67136;47.546;21.630;2024-01-11T00:46:04;101517.06;;;-7.46;100.00
77939;BME280;67136;47.546;21.630;2024-01-11T00:49:06;101521.28;;;-7.46;100.00
77939;BME280;67136;47.546;21.630;2024-01-11T00:52:09;101512.78;;;-7.48;100.00
77939;BME280;67136;47.546;21.630;2024-01-11T00:55:12;101513.34;;;-7.77;100.00
77939;BME280;67136;47.546;21.630;2024-01-11T00:58:14;101504.22;;;-7.59;100.00
77939;BME280;67136;47.546;21.630;2024-01-11T01:01:17;101499.81;;;-7.77;100.00
77939;BME280;67136;47.546;21.630;2024-01-11T01:04:20;101500.72;;;-7.71;100.00
77939;BME280;67136;47.546;21.630;2024-01-11T01:07:22;101499.66;;;-7.91;100.00
77939;BME280;67136;47.546;21.630;2024-01-11T01:10:25;101493.84;;;-7.81;100.00
77939;BME280;67136;47.546;21.630;2024-01-11T01:13:27;101490.25;;;-7.99;100.00
77939;BME280;67136;47.546;21.630;2024-01-11T01:16:30;101495.63;;;-7.72;100.00
77939;BME280;67136;47.546;21.630;2024-01-11T01:19:33;101490.41;;;-7.86;100.00
77939;BME280;67136;47.546;21.630;2024-01-11T01:22:35;101483.72;;;-7.78;100.00
77939;BME280;67136;47.546;21.630;2024-01-11T01:25:38;101478.53;;;-7.90;100.00
77939;BME280;67136;47.546;21.630;2024-01-11T01:28:41;101480.25;;;-7.86;100.00
77939;BME280;67136;47.546;21.630;2024-01-11T01:31:43;101470.66;;;-8.12;100.00
77939;BME280;67136;47.546;21.630;2024-01-11T01:34:46;101468.84;;;-8.25;100.00
77939;BME280;67136;47.546;21.630;2024-01-11T01:37:50;101458.72;;;-8.24;100.00
77939;BME280;67136;47.546;21.630;2024-01-11T01:40:52;101460.59;;;-8.05;100.00
77939;BME280;67136;47.546;21.630;2024-01-11T01:43:55;101453.66;;;-8.21;100.00
77939;BME280;67136;47.546;21.630;2024-01-11T01:46:58;101449.41;;;-8.22;100.00
77939;BME280;67136;47.546;21.630;2024-01-11T01:50:00;101443.63;;;-8.09;100.00
77939;BME280;67136;47.546;21.630;2024-01-11T01:53:03;101442.50;;;-8.35;100.00
77939;BME280;67136;47.546;21.630;2024-01-11T01:56:06;101434.97;;;-8.32;100.00
77939;BME280;67136;47.546;21.630;2024-01-11T01:59:11;101435.91;;;-8.18;100.00
77939;BME280;67136;47.546;21.630;2024-01-11T02:02:15;101442.94;;;-7.96;100.00
77939;BME280;67136;47.546;21.630;2024-01-11T02:05:18;101437.06;;;-7.90;100.00
77939;BME280;67136;47.546;21.630;2024-01-11T02:08:22;101430.84;;;-8.18;100.00
77939;BME280;67136;47.546;21.630;2024-01-11T02:11:28;101434.22;;;-8.19;100.00
77939;BME280;67136;47.546;21.630;2024-01-11T02:14:31;101420.78;;;-8.12;100.00
77939;BME280;67136;47.546;21.630;2024-01-11T02:17:34;101410.59;;;-8.15;100.00
77939;BME280;67136;47.546;21.630;2024-01-11T02:20:37;101409.34;;;-8.53;100.00
77939;BME280;67136;47.546;21.630;2024-01-11T02:23:44;101406.94;;;-8.44;100.00
77939;BME280;67136;47.546;21.630;2024-01-11T02:27:00;101400.19;;;-8.42;100.00
77939;BME280;67136;47.546;21.630;2024-01-11T02:30:03;101401.00;;;-8.44;100.00
77939;BME280;67136;47.546;21.630;2024-01-11T02:33:06;101392.69;;;-8.33;100.00
77939;BME280;67136;47.546;21.630;2024-01-11T02:36:10;101383.38;;;-8.34;100.00
77939;BME280;67136;47.546;21.630;2024-01-11T02:39:16;101374.91;;;-8.36;100.00
77939;BME280;67136;47.546;21.630;2024-01-11T02:42:19;101374.69;;;-8.55;100.00
77939;BME280;67136;47.546;21.630;2024-01-11T02:45:22;101376.34;;;-8.59;100.00
77939;BME280;67136;47.546;21.630;2024-01-11T02:48:30;101367.09;;;-8.55;100.00
77939;BME280;67136;47.546;21.630;2024-01-11T02:51:33;101383.25;;;-8.46;100.00
77939;BME280;67136;47.546;21.630;2024-01-11T02:54:36;101374.56;;;-8.63;100.00
77939;BME280;67136;47.546;21.630;2024-01-11T02:57:39;101366.28;;;-8.50;100.00
77939;BME280;67136;47.546;21.630;2024-01-11T03:00:41;101369.78;;;-8.42;100.00
77939;BME280;67136;47.546;21.630;2024-01-11T03:03:44;101360.28;;;-8.56;100.00
77939;BME280;67136;47.546;21.630;2024-01-11T03:06:48;101358.56;;;-8.62;100.00
77939;BME280;67136;47.546;21.630;2024-01-11T03:09:51;101351.63;;;-8.73;100.00
77939;BME280;67136;47.546;21.630;2024-01-11T03:12:53;101342.00;;;-9.00;100.00
77939;BME280;67136;47.546;21.630;2024-01-11T03:15:56;101333.41;;;-9.14;100.00
77939;BME280;67136;47.546;21.630;2024-01-11T03:18:59;101337.53;;;-9.21;100.00
77939;BME280;67136;47.546;21.630;2024-01-11T03:22:02;101326.41;;;-9.30;100.00
77939;BME280;67136;47.546;21.630;2024-01-11T03:25:08;101334.63;;;-9.46;100.00
77939;BME280;67136;47.546;21.630;2024-01-11T03:28:12;101335.47;;;-9.46;100.00
77939;BME280;67136;47.546;21.630;2024-01-11T03:31:15;101329.47;;;-9.52;100.00
77939;BME280;67136;47.546;21.630;2024-01-11T03:34:18;101334.50;;;-9.55;100.00
77939;BME280;67136;47.546;21.630;2024-01-11T03:37:21;101323.38;;;-9.65;100.00
77939;BME280;67136;47.546;21.630;2024-01-11T03:40:24;101317.50;;;-9.62;100.00
77939;BME280;67136;47.546;21.630;2024-01-11T03:43:26;101312.41;;;-9.65;100.00
77939;BME280;67136;47.546;21.630;2024-01-11T03:46:29;101325.13;;;-9.61;100.00
77939;BME280;67136;47.546;21.630;2024-01-11T03:49:32;101325.69;;;-9.78;100.00
77939;BME280;67136;47.546;21.630;2024-01-11T03:52:34;101331.72;;;-9.70;100.00
77939;BME280;67136;47.546;21.630;2024-01-11T03:55:37;101328.34;;;-9.71;100.00
77939;BME280;67136;47.546;21.630;2024-01-11T03:58:39;101329.13;;;-9.76;100.00
77939;BME280;67136;47.546;21.630;2024-01-11T04:01:44;101331.53;;;-9.82;100.00
77939;BME280;67136;47.546;21.630;2024-01-11T04:04:46;101334.44;;;-9.60;100.00
77939;BME280;67136;47.546;21.630;2024-01-11T04:07:49;101319.06;;;-9.70;100.00
77939;BME280;67136;47.546;21.630;2024-01-11T04:10:51;101312.41;;;-9.65;100.00
77939;BME280;67136;47.546;21.630;2024-01-11T04:13:54;101309.66;;;-9.79;100.00
77939;BME280;67136;47.546;21.630;2024-01-11T04:16:57;101312.22;;;-9.77;100.00
77939;BME280;67136;47.546;21.630;2024-01-11T04:19:59;101315.44;;;-9.87;100.00
77939;BME280;67136;47.546;21.630;2024-01-11T04:23:02;101312.91;;;-9.86;100.00
77939;BME280;67136;47.546;21.630;2024-01-11T04:26:05;101312.84;;;-9.90;100.00
77939;BME280;67136;47.546;21.630;2024-01-11T04:29:07;101309.81;;;-9.71;100.00
77939;BME280;67136;47.546;21.630;2024-01-11T04:32:10;101308.97;;;-9.70;100.00
77939;BME280;67136;47.546;21.630;2024-01-11T04:35:13;101300.56;;;-9.69;100.00
77939;BME280;67136;47.546;21.630;2024-01-11T04:38:15;101308.41;;;-9.53;100.00
77939;BME280;67136;47.546;21.630;2024-01-11T04:41:18;101311.69;;;-9.58;100.00
77939;BME280;67136;47.546;21.630;2024-01-11T04:44:21;101320.19;;;-9.53;100.00
77939;BME280;67136;47.546;21.630;2024-01-11T04:47:26;101316.13;;;-9.42;100.00
77939;BME280;67136;47.546;21.630;2024-01-11T04:50:31;101308.91;;;-9.15;100.00
77939;BME280;67136;47.546;21.630;2024-01-11T04:53:39;101310.44;;;-9.26;100.00
77939;BME280;67136;47.546;21.630;2024-01-11T04:56:42;101322.66;;;-8.95;100.00
77939;BME280;67136;47.546;21.630;2024-01-11T04:59:44;101313.22;;;-9.08;100.00
77939;BME280;67136;47.546;21.630;2024-01-11T05:02:47;101305.47;;;-9.19;100.00
77939;BME280;67136;47.546;21.630;2024-01-11T05:05:50;101313.19;;;-9.11;100.00
77939;BME280;67136;47.546;21.630;2024-01-11T05:08:52;101319.97;;;-9.07;100.00
77939;BME280;67136;47.546;21.630;2024-01-11T05:11:55;101310.69;;;-9.07;100.00
77939;BME280;67136;47.546;21.630;2024-01-11T05:14:58;101303.94;;;-9.08;100.00
77939;BME280;67136;47.546;21.630;2024-01-11T05:18:00;101296.25;;;-9.15;100.00
77939;BME280;67136;47.546;21.630;2024-01-11T05:21:03;101289.56;;;-9.10;100.00
77939;BME280;67136;47.546;21.630;2024-01-11T05:24:07;101294.63;;;-9.10;100.00
77939;BME280;67136;47.546;21.630;2024-01-11T05:27:13;101292.25;;;-8.97;100.00
77939;BME280;67136;47.546;21.630;2024-01-11T05:30:16;101281.94;;;-9.13;100.00
77939;BME280;67136;47.546;21.630;2024-01-11T05:33:19;101279.38;;;-9.16;100.00
77939;BME280;67136;47.546;21.630;2024-01-11T05:36:22;101290.63;;;-8.90;100.00
77939;BME280;67136;47.546;21.630;2024-01-11T05:39:24;101291.50;;;-8.91;100.00
77939;BME280;67136;47.546;21.630;2024-01-11T05:42:27;101293.03;;;-9.02;100.00
77939;BME280;67136;47.546;21.630;2024-01-11T05:45:30;101293.16;;;-8.91;100.00
77939;BME280;67136;47.546;21.630;2024-01-11T05:48:49;101287.94;;;-9.05;100.00
77939;BME280;67136;47.546;21.630;2024-01-11T05:51:52;101286.16;;;-9.12;100.00
77939;BME280;67136;47.546;21.630;2024-01-11T05:54:56;101287.78;;;-9.17;100.00
77939;BME280;67136;47.546;21.630;2024-01-11T05:57:58;101286.84;;;-9.24;100.00
77939;BME280;67136;47.546;21.630;2024-01-11T06:01:01;101280.94;;;-9.24;100.00
77939;BME280;67136;47.546;21.630;2024-01-11T06:04:04;101284.22;;;-9.31;100.00
77939;BME280;67136;47.546;21.630;2024-01-11T06:07:07;101276.44;;;-9.46;100.00
77939;BME280;67136;47.546;21.630;2024-01-11T06:10:10;101275.56;;;-9.48;100.00
77939;BME280;67136;47.546;21.630;2024-01-11T06:13:13;101282.19;;;-9.56;100.00
77939;BME280;67136;47.546;21.630;2024-01-11T06:16:15;101286.44;;;-9.54;100.00
77939;BME280;67136;47.546;21.630;2024-01-11T06:19:18;101278.84;;;-9.52;100.00
77939;BME280;67136;47.546;21.630;2024-01-11T06:22:21;101269.72;;;-9.43;100.00
77939;BME280;67136;47.546;21.630;2024-01-11T06:25:23;101273.97;;;-9.40;100.00
77939;BME280;67136;47.546;21.630;2024-01-11T06:28:26;101281.56;;;-9.40;100.00
77939;BME280;67136;47.546;21.630;2024-01-11T06:31:29;101279.06;;;-9.37;100.00
77939;BME280;67136;47.546;21.630;2024-01-11T06:34:31;101279.12;;;-9.34;100.00
77939;BME280;67136;47.546;21.630;2024-01-11T06:37:34;101280.13;;;-9.22;100.00
77939;BME280;67136;47.546;21.630;2024-01-11T06:40:37;101288.66;;;-9.15;100.00
77939;BME280;67136;47.546;21.630;2024-01-11T06:43:39;101283.59;;;-9.14;100.00
77939;BME280;67136;47.546;21.630;2024-01-11T06:46:42;101285.53;;;-8.93;100.00
77939;BME280;67136;47.546;21.630;2024-01-11T06:49:46;101285.47;;;-8.99;100.00
77939;BME280;67136;47.546;21.630;2024-01-11T06:52:49;101280.44;;;-8.98;100.00
77939;BME280;67136;47.546;21.630;2024-01-11T06:55:51;101267.00;;;-8.90;100.00
77939;BME280;67136;47.546;21.630;2024-01-11T06:58:55;101270.44;;;-8.87;100.00
77939;BME280;67136;47.546;21.630;2024-01-11T07:01:58;101276.41;;;-8.80;100.00
77939;BME280;67136;47.546;21.630;2024-01-11T07:05:02;101258.62;;;-8.85;100.00
77939;BME280;67136;47.546;21.630;2024-01-11T07:08:05;101262.88;;;-8.84;100.00
77939;BME280;67136;47.546;21.630;2024-01-11T07:11:08;101263.84;;;-8.68;100.00
77939;BME280;67136;47.546;21.630;2024-01-11T07:14:10;101254.53;;;-8.75;100.00
77939;BME280;67136;47.546;21.630;2024-01-11T07:17:13;101242.69;;;-8.75;100.00
77939;BME280;67136;47.546;21.630;2024-01-11T07:20:16;101239.31;;;-8.74;100.00
77939;BME280;67136;47.546;21.630;2024-01-11T07:23:21;101234.41;;;-8.59;100.00
77939;BME280;67136;47.546;21.630;2024-01-11T07:26:24;101228.59;;;-8.49;100.00
77939;BME280;67136;47.546;21.630;2024-01-11T07:29:27;101235.41;;;-8.42;100.00
77939;BME280;67136;47.546;21.630;2024-01-11T07:32:29;101232.16;;;-8.27;100.00
77939;BME280;67136;47.546;21.630;2024-01-11T07:35:32;101228.81;;;-8.17;100.00
77939;BME280;67136;47.546;21.630;2024-01-11T07:38:35;101229.75;;;-8.06;100.00
77939;BME280;67136;47.546;21.630;2024-01-11T07:41:37;101223.09;;;-7.94;100.00
77939;BME280;67136;47.546;21.630;2024-01-11T07:44:40;101230.13;;;-7.47;100.00
77939;BME280;67136;47.546;21.630;2024-01-11T07:47:44;101220.22;;;-6.84;100.00
77939;BME280;67136;47.546;21.630;2024-01-11T07:50:47;101216.63;;;-7.40;100.00
77939;BME280;67136;47.546;21.630;2024-01-11T07:53:50;101219.31;;;-7.07;100.00
77939;BME280;67136;47.546;21.630;2024-01-11T07:56:55;101208.38;;;-6.84;100.00
77939;BME280;67136;47.546;21.630;2024-01-11T07:59:59;101214.34;;;-6.55;100.00
77939;BME280;67136;47.546;21.630;2024-01-11T08:03:02;101214.28;;;-5.70;100.00
77939;BME280;67136;47.546;21.630;2024-01-11T08:06:05;101216.06;;;-5.96;100.00
77939;BME280;67136;47.546;21.630;2024-01-11T08:09:10;101225.41;;;-6.30;100.00
77939;BME280;67136;47.546;21.630;2024-01-11T08:12:14;101211.84;;;-6.20;100.00
77939;BME280;67136;47.546;21.630;2024-01-11T08:15:17;101222.84;;;-6.34;100.00
77939;BME280;67136;47.546;21.630;2024-01-11T08:18:20;101228.78;;;-6.01;100.00
77939;BME280;67136;47.546;21.630;2024-01-11T08:21:22;101212.66;;;-6.06;100.00
77939;BME280;67136;47.546;21.630;2024-01-11T08:24:25;101198.25;;;-6.43;100.00
77939;BME280;67136;47.546;21.630;2024-01-11T08:27:28;101202.50;;;-6.22;100.00
77939;BME280;67136;47.546;21.630;2024-01-11T08:30:30;101210.13;;;-6.18;100.00
77939;BME280;67136;47.546;21.630;2024-01-11T08:33:33;101196.44;;;-5.69;100.00
77939;BME280;67136;47.546;21.630;2024-01-11T08:36:36;101205.47;;;-4.88;100.00
77939;BME280;67136;47.546;21.630;2024-01-11T08:39:40;101205.69;;;-5.32;100.00
77939;BME280;67136;47.546;21.630;2024-01-11T08:42:45;101195.44;;;-5.21;100.00
77939;BME280;67136;47.546;21.630;2024-01-11T08:45:47;101183.25;;;-4.68;100.00
77939;BME280;67136;47.546;21.630;2024-01-11T08:48:50;101189.34;;;-4.91;100.00
77939;BME280;67136;47.546;21.630;2024-01-11T08:51:52;101190.03;;;-4.68;100.00
77939;BME280;67136;47.546;21.630;2024-01-11T08:54:55;101189.28;;;-4.85;100.00
77939;BME280;67136;47.546;21.630;2024-01-11T08:57:57;101173.81;;;-4.55;100.00
77939;BME280;67136;47.546;21.630;2024-01-11T09:01:00;101180.91;;;-5.06;100.00
77939;BME280;67136;47.546;21.630;2024-01-11T09:04:03;101169.25;;;-5.53;100.00
77939;BME280;67136;47.546;21.630;2024-01-11T09:07:07;101169.19;;;-5.46;100.00
77939;BME280;67136;47.546;21.630;2024-01-11T09:10:10;101164.97;;;-5.54;100.00
77939;BME280;67136;47.546;21.630;2024-01-11T09:13:14;101160.72;;;-5.51;100.00
77939;BME280;67136;47.546;21.630;2024-01-11T09:16:17;101168.38;;;-5.52;100.00
77939;BME280;67136;47.546;21.630;2024-01-11T09:19:20;101159.78;;;-5.23;100.00
77939;BME280;67136;47.546;21.630;2024-01-11T09:22:24;101158.81;;;-5.03;100.00
77939;BME280;67136;47.546;21.630;2024-01-11T09:25:27;101152.13;;;-5.23;100.00
77939;BME280;67136;47.546;21.630;2024-01-11T09:28:29;101156.47;;;-5.43;100.00
77939;BME280;67136;47.546;21.630;2024-01-11T09:31:32;101145.47;;;-5.54;100.00
77939;BME280;67136;47.546;21.630;2024-01-11T09:34:35;101140.28;;;-5.30;100.00
77939;BME280;67136;47.546;21.630;2024-01-11T09:37:38;101127.56;;;-5.33;100.00
77939;BME280;67136;47.546;21.630;2024-01-11T09:40:40;101112.38;;;-5.55;100.00
77939;BME280;67136;47.546;21.630;2024-01-11T09:43:44;101108.91;;;-5.44;100.00
77939;BME280;67136;47.546;21.630;2024-01-11T09:46:48;101106.34;;;-5.35;100.00
77939;BME280;67136;47.546;21.630;2024-01-11T09:49:51;101103.72;;;-5.26;100.00
77939;BME280;67136;47.546;21.630;2024-01-11T09:52:54;101099.44;;;-5.18;100.00
77939;BME280;67136;47.546;21.630;2024-01-11T09:55:58;101099.31;;;-4.99;100.00
77939;BME280;67136;47.546;21.630;2024-01-11T09:59:01;101097.66;;;-5.05;100.00
77939;BME280;67136;47.546;21.630;2024-01-11T10:02:05;101082.38;;;-5.07;100.00
77939;BME280;67136;47.546;21.630;2024-01-11T10:05:11;101069.66;;;-5.10;100.00
77939;BME280;67136;47.546;21.630;2024-01-11T10:08:21;101073.06;;;-5.09;100.00
77939;BME280;67136;47.546;21.630;2024-01-11T10:11:24;101062.69;;;-4.89;100.00
77939;BME280;67136;47.546;21.630;2024-01-11T10:14:26;101057.59;;;-4.89;100.00
77939;BME280;67136;47.546;21.630;2024-01-11T10:17:29;101058.47;;;-4.93;100.00
77939;BME280;67136;47.546;21.630;2024-01-11T10:20:32;101046.38;;;-4.67;100.00
77939;BME280;67136;47.546;21.630;2024-01-11T10:23:35;101050.75;;;-4.84;100.00
77939;BME280;67136;47.546;21.630;2024-01-11T10:26:43;101048.00;;;-4.62;100.00
77939;BME280;67136;47.546;21.630;2024-01-11T10:29:46;101045.53;;;-4.68;100.00
77939;BME280;67136;47.546;21.630;2024-01-11T10:32:50;101041.16;;;-4.58;100.00
77939;BME280;67136;47.546;21.630;2024-01-11T10:35:53;101032.50;;;-4.39;100.00
77939;BME280;67136;47.546;21.630;2024-01-11T10:38:57;101038.75;;;-4.69;100.00
77939;BME280;67136;47.546;21.630;2024-01-11T10:42:06;101037.66;;;-4.47;100.00
77939;BME280;67136;47.546;21.630;2024-01-11T10:45:17;101020.88;;;-4.67;100.00
77939;BME280;67136;47.546;21.630;2024-01-11T10:48:21;101019.00;;;-4.53;100.00
77939;BME280;67136;47.546;21.630;2024-01-11T10:51:25;101015.47;;;-4.37;100.00
77939;BME280;67136;47.546;21.630;2024-01-11T10:54:31;101012.00;;;-4.33;100.00
77939;BME280;67136;47.546;21.630;2024-01-11T10:57:37;101008.22;;;-4.01;100.00
77939;BME280;67136;47.546;21.630;2024-01-11T11:00:40;101007.25;;;-4.66;100.00
77939;BME280;67136;47.546;21.630;2024-01-11T11:03:43;101007.97;;;-4.54;100.00
77939;BME280;67136;47.546;21.630;2024-01-11T11:06:49;100999.09;;;-4.21;100.00
77939;BME280;67136;47.546;21.630;2024-01-11T11:09:53;100991.75;;;-4.48;100.00
77939;BME280;67136;47.546;21.630;2024-01-11T11:12:58;100983.22;;;-4.44;100.00
77939;BME280;67136;47.546;21.630;2024-01-11T11:16:02;100971.34;;;-4.48;100.00
77939;BME280;67136;47.546;21.630;2024-01-11T11:19:07;100963.66;;;-4.47;100.00
77939;BME280;67136;47.546;21.630;2024-01-11T11:22:13;100963.63;;;-4.41;100.00
77939;BME280;67136;47.546;21.630;2024-01-11T11:25:25;100963.84;;;-4.60;100.00
77939;BME280;67136;47.546;21.630;2024-01-11T11:28:28;100961.59;;;-4.15;100.00
77939;BME280;67136;47.546;21.630;2024-01-11T11:31:37;100971.97;;;-4.27;100.00
77939;BME280;67136;47.546;21.630;2024-01-11T11:34:41;100974.50;;;-4.28;100.00
77939;BME280;67136;47.546;21.630;2024-01-11T11:37:45;100958.16;;;-4.11;100.00
77939;BME280;67136;47.546;21.630;2024-01-11T11:40:48;100957.41;;;-4.20;100.00
77939;BME280;67136;47.546;21.630;2024-01-11T11:43:51;100954.03;;;-4.22;100.00
77939;BME280;67136;47.546;21.630;2024-01-11T11:46:54;100967.22;;;-3.89;100.00
77939;BME280;67136;47.546;21.630;2024-01-11T11:53:10;100933.25;;;-3.95;100.00
77939;BME280;67136;47.546;21.630;2024-01-11T11:56:15;100944.03;;;-3.73;100.00
77939;BME280;67136;47.546;21.630;2024-01-11T11:59:20;100937.88;;;-4.24;100.00
77939;BME280;67136;47.546;21.630;2024-01-11T12:02:24;100937.72;;;-4.11;100.00
77939;BME280;67136;47.546;21.630;2024-01-11T12:05:28;100931.66;;;-4.02;100.00
77939;BME280;67136;47.546;21.630;2024-01-11T12:08:31;100925.84;;;-4.15;100.00
77939;BME280;67136;47.546;21.630;2024-01-11T12:11:34;100914.34;;;-3.82;100.00
77939;BME280;67136;47.546;21.630;2024-01-11T12:14:36;100903.09;;;-3.70;100.00
77939;BME280;67136;47.546;21.630;2024-01-11T12:17:39;100886.16;;;-3.78;100.00
77939;BME280;67136;47.546;21.630;2024-01-11T12:20:45;100891.97;;;-3.65;100.00
77939;BME280;67136;47.546;21.630;2024-01-11T12:23:48;100902.03;;;-3.57;100.00
77939;BME280;67136;47.546;21.630;2024-01-11T12:26:52;100899.56;;;-3.62;100.00
77939;BME280;67136;47.546;21.630;2024-01-11T12:29:58;100895.34;;;-3.63;100.00
77939;BME280;67136;47.546;21.630;2024-01-11T12:33:02;100888.03;;;-3.87;100.00
77939;BME280;67136;47.546;21.630;2024-01-11T12:36:06;100885.53;;;-3.90;100.00
77939;BME280;67136;47.546;21.630;2024-01-11T12:39:10;100892.75;;;-3.61;100.00
77939;BME280;67136;47.546;21.630;2024-01-11T12:42:15;100883.03;;;-3.96;100.00
77939;BME280;67136;47.546;21.630;2024-01-11T12:45:21;100874.34;;;-3.82;100.00
77939;BME280;67136;47.546;21.630;2024-01-11T12:48:25;100878.97;;;-4.08;100.00
77939;BME280;67136;47.546;21.630;2024-01-11T12:51:28;100882.16;;;-3.94;100.00
77939;BME280;67136;47.546;21.630;2024-01-11T12:54:32;100881.91;;;-3.77;100.00
77939;BME280;67136;47.546;21.630;2024-01-11T12:57:35;100871.75;;;-3.80;100.00
77939;BME280;67136;47.546;21.630;2024-01-11T13:00:39;100862.19;;;-3.67;100.00
77939;BME280;67136;47.546;21.630;2024-01-11T13:03:46;100841.50;;;-3.54;100.00
77939;BME280;67136;47.546;21.630;2024-01-11T13:06:49;100838.81;;;-3.45;100.00
77939;BME280;67136;47.546;21.630;2024-01-11T13:09:52;100838.56;;;-3.30;100.00
77939;BME280;67136;47.546;21.630;2024-01-11T13:12:58;100842.12;;;-3.40;100.00
77939;BME280;67136;47.546;21.630;2024-01-11T13:16:10;100834.28;;;-3.78;100.00
77939;BME280;67136;47.546;21.630;2024-01-11T13:19:17;100833.03;;;-4.09;100.00
77939;BME280;67136;47.546;21.630;2024-01-11T13:22:28;100821.91;;;-4.05;100.00
77939;BME280;67136;47.546;21.630;2024-01-11T13:25:31;100834.63;;;-4.02;100.00
77939;BME280;67136;47.546;21.630;2024-01-11T13:28:34;100837.84;;;-3.91;100.00
77939;BME280;67136;47.546;21.630;2024-01-11T13:31:37;100824.97;;;-3.84;100.00
77939;BME280;67136;47.546;21.630;2024-01-11T13:34:40;100803.28;;;-4.13;100.00
77939;BME280;67136;47.546;21.630;2024-01-11T13:37:45;100793.78;;;-4.02;100.00
77939;BME280;67136;47.546;21.630;2024-01-11T13:40:47;100798.25;;;-4.16;100.00
77939;BME280;67136;47.546;21.630;2024-01-11T13:43:50;100794.34;;;-3.84;100.00
77939;BME280;67136;47.546;21.630;2024-01-11T13:46:52;100790.41;;;-4.04;100.00
77939;BME280;67136;47.546;21.630;2024-01-11T13:49:55;100793.09;;;-4.12;100.00
77939;BME280;67136;47.546;21.630;2024-01-11T13:52:58;100802.63;;;-4.24;100.00
77939;BME280;67136;47.546;21.630;2024-01-11T13:56:01;100795.78;;;-4.22;100.00
77939;BME280;67136;47.546;21.630;2024-01-11T13:59:04;100778.53;;;-4.05;100.00
77939;BME280;67136;47.546;21.630;2024-01-11T14:02:08;100769.06;;;-4.00;100.00
77939;BME280;67136;47.546;21.630;2024-01-11T14:05:11;100764.94;;;-4.07;100.00
77939;BME280;67136;47.546;21.630;2024-01-11T14:08:15;100751.22;;;-4.03;100.00
77939;BME280;67136;47.546;21.630;2024-01-11T14:11:18;100749.78;;;-4.19;100.00
77939;BME280;67136;47.546;21.630;2024-01-11T14:14:21;100744.97;;;-4.36;100.00
77939;BME280;67136;47.546;21.630;2024-01-11T14:17:24;100736.44;;;-4.36;100.00
77939;BME280;67136;47.546;21.630;2024-01-11T14:20:27;100729.66;;;-4.36;100.00
77939;BME280;67136;47.546;21.630;2024-01-11T14:23:31;100739.97;;;-4.45;100.00
77939;BME280;67136;47.546;21.630;2024-01-11T14:26:34;100750.31;;;-4.52;100.00
77939;BME280;67136;47.546;21.630;2024-01-11T14:29:37;100750.16;;;-4.43;100.00
77939;BME280;67136;47.546;21.630;2024-01-11T14:32:40;100756.09;;;-4.43;100.00
77939;BME280;67136;47.546;21.630;2024-01-11T14:35:46;100764.47;;;-4.33;100.00
77939;BME280;67136;47.546;21.630;2024-01-11T14:38:48;100760.28;;;-4.37;100.00
77939;BME280;67136;47.546;21.630;2024-01-11T14:41:52;100752.66;;;-4.39;100.00
77939;BME280;67136;47.546;21.630;2024-01-11T14:44:56;100746.81;;;-4.48;100.00
77939;BME280;67136;47.546;21.630;2024-01-11T14:47:59;100743.44;;;-4.47;100.00
77939;BME280;67136;47.546;21.630;2024-01-11T14:51:03;100737.38;;;-4.42;100.00
77939;BME280;67136;47.546;21.630;2024-01-11T14:54:07;100723.72;;;-4.38;100.00
77939;BME280;67136;47.546;21.630;2024-01-11T14:57:09;100715.06;;;-4.29;100.00
77939;BME280;67136;47.546;21.630;2024-01-11T15:00:13;100699.94;;;-4.40;100.00
77939;BME280;67136;47.546;21.630;2024-01-11T15:03:16;100704.22;;;-4.43;100.00
77939;BME280;67136;47.546;21.630;2024-01-11T15:06:22;100710.97;;;-4.39;100.00
77939;BME280;67136;47.546;21.630;2024-01-11T15:09:24;100721.06;;;-4.30;100.00
77939;BME280;67136;47.546;21.630;2024-01-11T15:12:28;100722.97;;;-4.44;100.00
77939;BME280;67136;47.546;21.630;2024-01-11T15:15:31;100716.09;;;-4.39;100.00
77939;BME280;67136;47.546;21.630;2024-01-11T15:18:33;100718.63;;;-4.39;100.00
77939;BME280;67136;47.546;21.630;2024-01-11T15:21:36;100728.66;;;-4.27;100.00
77939;BME280;67136;47.546;21.630;2024-01-11T15:24:43;100736.41;;;-4.35;100.00
77939;BME280;67136;47.546;21.630;2024-01-11T15:27:48;100730.38;;;-4.29;100.00
77939;BME280;67136;47.546;21.630;2024-01-11T15:30:51;100730.50;;;-4.35;100.00
77939;BME280;67136;47.546;21.630;2024-01-11T15:33:54;100724.50;;;-4.33;100.00
77939;BME280;67136;47.546;21.630;2024-01-11T15:36:57;100717.75;;;-4.35;100.00